createdAt,value
2018-05-11T00:00:52.398Z,3.10
2018-05-11T00:03:20.879Z,2.90
2018-05-11T00:05:48.453Z,3.00
2018-05-11T00:08:15.959Z,2.63
2018-05-11T00:10:43.490Z,2.90
2018-05-11T00:13:11.051Z,2.80
2018-05-11T00:15:38.617Z,2.77
2018-05-11T00:18:06.137Z,2.90
2018-05-11T00:20:33.635Z,2.80
2018-05-11T00:23:01.205Z,2.63
2018-05-11T00:25:28.719Z,2.90
2018-05-11T00:27:56.233Z,2.80
2018-05-11T00:30:23.815Z,2.60
2018-05-11T00:32:51.311Z,2.70
2018-05-11T00:35:18.809Z,2.83
2018-05-11T00:37:46.395Z,2.60
2018-05-11T00:40:13.905Z,2.53
2018-05-11T00:42:41.391Z,2.40
2018-05-11T00:45:08.891Z,2.57
2018-05-11T00:47:36.453Z,2.70
2018-05-11T00:50:03.948Z,2.33
2018-05-11T00:52:32.230Z,2.80
2018-05-11T00:55:12.490Z,2.77
2018-05-11T00:57:40.846Z,2.70
2018-05-11T01:00:08.419Z,2.47
2018-05-11T01:02:35.924Z,2.70
2018-05-11T01:05:03.404Z,2.30
2018-05-11T01:07:30.904Z,2.47
2018-05-11T01:09:58.412Z,2.43
2018-05-11T01:12:25.931Z,2.50
2018-05-11T01:14:53.460Z,2.90
2018-05-11T01:17:20.942Z,2.37
2018-05-11T01:19:48.530Z,2.40
2018-05-11T01:22:16.810Z,2.20
2018-05-11T01:24:45.071Z,2.40
2018-05-11T01:27:12.562Z,2.43
2018-05-11T01:29:40.073Z,2.10
2018-05-11T01:32:07.580Z,2.07
2018-05-11T01:34:35.158Z,2.27
2018-05-11T01:37:02.660Z,2.40
2018-05-11T01:39:30.145Z,2.30
2018-05-11T01:41:57.644Z,2.50
2018-05-11T01:44:25.139Z,2.30
2018-05-11T01:46:53.490Z,2.37
2018-05-11T01:49:21.750Z,2.60
2018-05-11T01:51:49.242Z,2.37
2018-05-11T01:54:16.738Z,2.30
2018-05-11T01:56:44.230Z,2.10
2018-05-11T01:59:11.742Z,2.37
2018-05-11T02:01:39.238Z,2.10
2018-05-11T02:04:06.731Z,2.13
2018-05-11T02:06:34.321Z,2.10
2018-05-11T02:09:02.587Z,2.10
2018-05-11T02:11:30.170Z,2.30
2018-05-11T02:13:58.455Z,2.17
2018-05-11T02:16:26.015Z,2.37
2018-05-11T02:18:53.529Z,2.27
2018-05-11T02:21:21.028Z,2.30
2018-05-11T02:23:48.562Z,2.07
2018-05-11T02:26:16.042Z,2.30
2018-05-11T02:28:43.620Z,2.20
2018-05-11T02:31:11.219Z,2.33
2018-05-11T02:33:38.792Z,2.10
2018-05-11T02:36:06.302Z,2.10
2018-05-11T02:38:33.794Z,1.90
2018-05-11T02:41:01.277Z,2.40
2018-05-11T02:43:29.541Z,2.03
2018-05-11T02:45:57.037Z,2.20
2018-05-11T02:48:25.396Z,1.90
2018-05-11T02:50:52.954Z,2.07
2018-05-11T02:53:20.528Z,1.90
2018-05-11T02:55:48.024Z,2.00
2018-05-11T02:58:16.361Z,2.20
2018-05-11T03:00:43.936Z,1.87
2018-05-11T03:03:11.431Z,1.93
2018-05-11T03:05:39.806Z,2.20
2018-05-11T03:08:07.350Z,2.00
2018-05-11T03:10:34.856Z,2.00
2018-05-11T03:13:02.368Z,2.00
2018-05-11T03:15:29.866Z,1.90
2018-05-11T03:17:58.240Z,2.23
2018-05-11T03:20:25.744Z,1.87
2018-05-11T03:22:53.232Z,2.20
2018-05-11T03:25:20.842Z,2.13
2018-05-11T03:27:48.342Z,1.70
2018-05-11T03:30:15.862Z,1.87
2018-05-11T03:32:43.391Z,1.70
2018-05-11T03:35:10.989Z,1.77
2018-05-11T03:37:38.553Z,1.80
2018-05-11T03:40:06.041Z,2.10
2018-05-11T03:42:34.307Z,1.93
2018-05-11T03:45:01.804Z,2.00
2018-05-11T03:47:29.289Z,1.90
2018-05-11T03:49:56.806Z,1.90
2018-05-11T03:52:24.308Z,2.00
2018-05-11T03:54:51.803Z,2.23
2018-05-11T03:57:19.305Z,2.10
2018-05-11T03:59:47.564Z,2.00
2018-05-11T04:02:27.058Z,2.30
2018-05-11T04:05:06.544Z,2.00
2018-05-11T04:07:47.672Z,1.73
2018-05-11T04:10:15.163Z,2.13
2018-05-11T04:12:42.667Z,2.03
2018-05-11T04:15:10.930Z,2.00
2018-05-11T04:17:38.430Z,2.07
2018-05-11T04:20:06.688Z,2.20
2018-05-11T04:22:34.186Z,2.03
2018-05-11T04:25:01.695Z,2.00
2018-05-11T04:27:29.263Z,2.30
2018-05-11T04:29:56.759Z,2.10
2018-05-11T04:32:25.115Z,2.07
2018-05-11T04:34:52.605Z,2.10
2018-05-11T04:37:21.031Z,1.80
2018-05-11T04:39:48.447Z,2.10
2018-05-11T04:42:16.724Z,1.90
2018-05-11T04:44:44.236Z,2.00
2018-05-11T04:47:11.732Z,2.27
2018-05-11T04:49:39.312Z,2.13
2018-05-11T04:52:06.867Z,2.10
2018-05-11T04:54:34.375Z,4.60
2018-05-11T04:57:01.869Z,7.50
2018-05-11T04:59:29.468Z,12.57
2018-05-11T05:01:57.743Z,15.93
2018-05-11T05:04:25.241Z,15.60
2018-05-11T05:06:53.608Z,15.87
2018-05-11T05:09:21.166Z,15.03
2018-05-11T05:11:48.740Z,13.77
2018-05-11T05:14:16.295Z,16.40
2018-05-11T05:16:43.792Z,16.57
2018-05-11T05:19:12.117Z,18.40
2018-05-11T05:21:40.341Z,16.97
2018-05-11T05:24:08.603Z,18.00
2018-05-11T05:26:36.193Z,18.03
2018-05-11T05:29:04.471Z,17.63
2018-05-11T05:31:32.728Z,18.80
2018-05-11T05:34:00.247Z,18.53
2018-05-11T05:36:27.743Z,17.50
2018-05-11T05:38:55.343Z,16.97
2018-05-11T05:41:22.837Z,17.47
2018-05-11T05:43:50.335Z,17.20
2018-05-11T05:46:17.829Z,17.60
2018-05-11T05:48:45.349Z,17.43
2018-05-11T05:51:12.954Z,16.37
2018-05-11T05:53:40.450Z,16.63
2018-05-11T05:56:08.715Z,16.77
2018-05-11T05:58:36.243Z,16.67
2018-05-11T06:01:03.725Z,16.33
2018-05-11T06:03:31.293Z,17.30
2018-05-11T06:05:58.813Z,14.80
2018-05-11T06:08:26.333Z,16.10
2018-05-11T06:10:53.877Z,15.53
2018-05-11T06:13:21.368Z,15.00
2018-05-11T06:15:48.903Z,14.90
2018-05-11T06:18:16.489Z,14.47
2018-05-11T06:20:43.987Z,14.83
2018-05-11T06:23:12.345Z,13.97
2018-05-11T06:25:39.827Z,14.27
2018-05-11T06:28:08.109Z,13.97
2018-05-11T06:30:36.666Z,13.57
2018-05-11T06:33:04.156Z,13.87
2018-05-11T06:35:32.421Z,13.13
2018-05-11T06:37:59.945Z,13.23
2018-05-11T06:40:27.522Z,12.63
2018-05-11T06:42:55.837Z,11.90
2018-05-11T06:45:23.327Z,12.30
2018-05-11T06:47:51.721Z,11.30
2018-05-11T06:50:19.209Z,11.80
2018-05-11T06:52:46.734Z,11.00
2018-05-11T06:55:15.007Z,12.57
2018-05-11T06:57:42.500Z,12.80
2018-05-11T07:00:10.013Z,12.30
2018-05-11T07:02:37.521Z,11.43
2018-05-11T07:05:05.048Z,11.27
2018-05-11T07:07:32.621Z,10.80
2018-05-11T07:10:00.126Z,11.13
2018-05-11T07:12:27.620Z,10.47
2018-05-11T07:14:55.202Z,10.60
2018-05-11T07:17:22.777Z,10.67
2018-05-11T07:19:50.268Z,10.27
2018-05-11T07:22:18.623Z,10.50
2018-05-11T07:24:46.206Z,10.13
2018-05-11T07:27:13.698Z,10.77
2018-05-11T07:29:41.282Z,10.23
2018-05-11T07:32:08.793Z,9.90
2018-05-11T07:34:37.794Z,10.37
2018-05-11T07:37:05.305Z,10.17
2018-05-11T07:39:32.806Z,9.23
2018-05-11T07:42:00.321Z,9.87
2018-05-11T07:44:27.834Z,9.03
2018-05-11T07:46:55.402Z,9.00
2018-05-11T07:49:22.968Z,9.97
2018-05-11T07:51:50.458Z,9.93
2018-05-11T07:54:18.830Z,9.23
2018-05-11T07:56:46.396Z,9.00
2018-05-11T07:59:13.902Z,8.70
2018-05-11T08:01:41.426Z,9.03
2018-05-11T08:04:08.926Z,8.97
2018-05-11T08:06:36.458Z,8.80
2018-05-11T08:09:05.549Z,8.90
2018-05-11T08:11:33.051Z,8.33
2018-05-11T08:14:00.531Z,8.23
2018-05-11T08:16:28.033Z,8.93
2018-05-11T08:18:55.608Z,8.20
2018-05-11T08:21:23.249Z,8.57
2018-05-11T08:23:50.739Z,8.60
2018-05-11T08:26:18.243Z,8.23
2018-05-11T08:28:45.777Z,8.63
2018-05-11T08:31:14.063Z,8.03
2018-05-11T08:33:42.332Z,7.30
2018-05-11T08:36:09.839Z,7.80
2018-05-11T08:38:37.362Z,8.10
2018-05-11T08:41:05.633Z,7.40
2018-05-11T08:43:33.208Z,7.63
2018-05-11T08:46:00.697Z,7.37
2018-05-11T08:48:29.056Z,7.70
2018-05-11T08:50:56.550Z,7.20
2018-05-11T08:53:24.914Z,7.50
2018-05-11T08:55:52.423Z,7.13
2018-05-11T08:58:19.924Z,7.53
2018-05-11T09:00:47.440Z,7.70
2018-05-11T09:03:14.934Z,7.17
2018-05-11T09:05:42.522Z,6.97
2018-05-11T09:08:10.095Z,7.23
2018-05-11T09:10:37.604Z,7.40
2018-05-11T09:13:05.123Z,7.37
2018-05-11T09:15:32.619Z,7.03
2018-05-11T09:18:00.141Z,7.17
2018-05-11T09:20:27.650Z,7.50
2018-05-11T09:22:56.007Z,7.20
2018-05-11T09:25:23.523Z,7.10
2018-05-11T09:27:51.049Z,6.73
2018-05-11T09:30:19.398Z,6.57
2018-05-11T09:32:46.929Z,7.07
2018-05-11T09:35:14.415Z,6.40
2018-05-11T09:37:42.068Z,7.23
2018-05-11T09:40:09.571Z,6.53
2018-05-11T09:42:37.059Z,6.13
2018-05-11T09:45:05.421Z,6.23
2018-05-11T09:47:32.929Z,6.83
2018-05-11T09:50:00.454Z,6.27
2018-05-11T09:52:27.951Z,6.47
2018-05-11T09:54:55.525Z,6.20
2018-05-11T09:57:23.043Z,6.20
2018-05-11T09:59:50.623Z,6.77
2018-05-11T10:02:18.989Z,6.43
2018-05-11T10:04:46.494Z,5.80
2018-05-11T10:07:14.000Z,6.77
2018-05-11T10:09:41.600Z,6.50
2018-05-11T10:12:09.093Z,6.53
2018-05-11T10:14:36.597Z,5.70
2018-05-11T10:17:04.203Z,6.20
2018-05-11T10:19:31.754Z,6.33
2018-05-11T10:21:59.280Z,5.57
2018-05-11T10:24:26.907Z,6.57
2018-05-11T10:26:55.194Z,6.67
2018-05-11T10:29:23.562Z,6.40
2018-05-11T10:31:51.058Z,6.10
2018-05-11T10:34:18.651Z,6.03
2018-05-11T10:36:46.149Z,6.50
2018-05-11T10:39:13.662Z,6.23
2018-05-11T10:41:41.183Z,5.63
2018-05-11T10:44:08.672Z,5.83
2018-05-11T10:46:36.210Z,6.33
2018-05-11T10:49:03.698Z,5.50
2018-05-11T10:51:32.048Z,5.00
2018-05-11T10:53:59.554Z,5.60
2018-05-11T10:56:27.046Z,5.20
2018-05-11T10:58:54.597Z,6.43
2018-05-11T11:01:22.933Z,5.73
2018-05-11T11:03:50.417Z,5.40
2018-05-11T11:06:18.780Z,5.47
2018-05-11T11:08:46.270Z,5.13
2018-05-11T11:11:14.627Z,5.33
2018-05-11T11:13:42.197Z,5.60
2018-05-11T11:16:09.766Z,5.57
2018-05-11T11:18:37.311Z,6.07
2018-05-11T11:21:04.832Z,6.17
2018-05-11T11:23:32.355Z,5.20
2018-05-11T11:25:59.866Z,5.20
2018-05-11T11:28:28.152Z,5.10
2018-05-11T11:30:56.479Z,5.30
2018-05-11T11:33:23.998Z,4.57
2018-05-11T11:35:51.617Z,5.37
2018-05-11T11:38:19.180Z,4.93
2018-05-11T11:40:46.683Z,4.37
2018-05-11T11:43:15.027Z,5.27
2018-05-11T11:45:42.609Z,5.50
2018-05-11T11:48:10.113Z,5.17
2018-05-11T11:50:37.628Z,5.13
2018-05-11T11:53:05.140Z,4.90
2018-05-11T11:55:32.652Z,5.30
2018-05-11T11:58:00.915Z,5.33
2018-05-11T12:00:28.508Z,4.70
2018-05-11T12:02:56.011Z,5.47
2018-05-11T12:05:23.497Z,4.43
2018-05-11T12:07:50.989Z,4.30
2018-05-11T12:10:18.557Z,5.03
2018-05-11T12:12:46.069Z,4.90
2018-05-11T12:15:13.566Z,4.77
2018-05-11T12:17:41.146Z,4.70
2018-05-11T12:20:08.689Z,4.57
2018-05-11T12:22:36.278Z,4.50
2018-05-11T12:25:03.858Z,4.80
2018-05-11T12:27:31.409Z,5.00
2018-05-11T12:29:58.918Z,4.57
2018-05-11T12:32:27.265Z,4.30
2018-05-11T12:34:54.837Z,4.87
2018-05-11T12:37:23.106Z,4.63
2018-05-11T12:39:50.675Z,4.60
2018-05-11T12:42:18.203Z,4.70
2018-05-11T12:44:45.699Z,4.60
2018-05-11T12:47:13.280Z,4.73
2018-05-11T12:49:40.795Z,4.60
2018-05-11T12:52:08.275Z,4.47
2018-05-11T12:54:35.873Z,4.27
2018-05-11T12:57:03.358Z,4.10
2018-05-11T12:59:31.727Z,4.43
2018-05-11T13:01:59.270Z,4.63
2018-05-11T13:04:26.763Z,4.80
2018-05-11T13:06:55.033Z,4.57
2018-05-11T13:09:22.528Z,4.27
2018-05-11T13:11:50.025Z,4.83
2018-05-11T13:14:17.628Z,4.60
2018-05-11T13:16:45.137Z,4.87
2018-05-11T13:19:12.625Z,4.60
2018-05-11T13:21:40.132Z,4.97
2018-05-11T13:24:08.479Z,4.67
2018-05-11T13:26:36.070Z,4.53
2018-05-11T13:29:03.635Z,4.93
2018-05-11T13:31:31.205Z,4.13
2018-05-11T13:33:58.723Z,5.10
2018-05-11T13:36:26.265Z,19.13
2018-05-11T13:38:53.800Z,5.40
2018-05-11T13:41:21.359Z,5.27
2018-05-11T13:43:48.851Z,5.47
2018-05-11T13:46:17.113Z,5.73
2018-05-11T13:48:44.615Z,5.10
2018-05-11T13:51:12.215Z,5.10
2018-05-11T13:53:39.789Z,5.00
2018-05-11T13:56:07.471Z,5.13
2018-05-11T13:58:35.753Z,4.90
2018-05-11T14:01:03.322Z,3.70
2018-05-11T14:03:30.966Z,4.37
2018-05-11T14:05:58.448Z,4.40
2018-05-11T14:08:25.941Z,4.77
2018-05-11T14:10:54.303Z,4.57
2018-05-11T14:13:21.807Z,5.07
2018-05-11T14:15:49.331Z,4.50
2018-05-11T14:18:16.900Z,4.30
2018-05-11T14:20:44.470Z,4.50
2018-05-11T14:23:12.031Z,5.03
2018-05-11T14:25:39.527Z,4.40
2018-05-11T14:28:07.035Z,5.00
2018-05-11T14:30:34.615Z,4.33
2018-05-11T14:33:02.193Z,4.70
2018-05-11T14:35:29.705Z,4.17
2018-05-11T14:37:57.227Z,3.80
2018-05-11T14:40:24.786Z,4.47
2018-05-11T14:42:52.349Z,3.77
2018-05-11T14:45:19.854Z,3.80
2018-05-11T14:47:47.355Z,4.30
2018-05-11T14:50:14.937Z,5.03
2018-05-11T14:52:42.503Z,3.90
2018-05-11T14:55:10.001Z,4.20
2018-05-11T14:57:38.359Z,3.80
2018-05-11T15:00:06.609Z,3.83
2018-05-11T15:02:34.217Z,4.10
2018-05-11T15:05:01.776Z,4.10
2018-05-11T15:07:30.053Z,4.20
2018-05-11T15:09:57.630Z,4.97
2018-05-11T15:12:25.071Z,4.83
2018-05-11T15:14:52.649Z,4.37
2018-05-11T15:17:20.258Z,5.10
2018-05-11T15:19:47.778Z,4.80
2018-05-11T15:22:15.290Z,4.40
2018-05-11T15:24:42.805Z,5.20
2018-05-11T15:27:10.377Z,4.67
2018-05-11T15:29:37.885Z,4.97
2018-05-11T15:32:05.373Z,4.40
2018-05-11T15:34:32.965Z,4.70
2018-05-11T15:37:01.235Z,4.77
2018-05-11T15:39:28.859Z,4.33
2018-05-11T15:41:56.375Z,4.13
2018-05-11T15:44:23.934Z,4.40
2018-05-11T15:46:51.439Z,4.73
2018-05-11T15:49:19.806Z,4.33
2018-05-11T15:51:47.349Z,4.40
2018-05-11T15:54:14.937Z,4.40
2018-05-11T15:56:42.511Z,4.87
2018-05-11T15:59:10.874Z,4.30
2018-05-11T16:01:38.294Z,4.80
2018-05-11T16:04:05.791Z,3.77
2018-05-11T16:06:33.373Z,4.00
2018-05-11T16:09:00.952Z,4.10
2018-05-11T16:11:28.449Z,3.50
2018-05-11T16:13:55.961Z,3.80
2018-05-11T16:16:23.457Z,3.70
2018-05-11T16:18:51.787Z,3.90
2018-05-11T16:21:19.377Z,3.50
2018-05-11T16:23:46.866Z,3.53
2018-05-11T16:26:15.273Z,3.30
2018-05-11T16:28:42.761Z,3.20
2018-05-11T16:31:10.275Z,3.80
2018-05-11T16:33:38.641Z,3.40
2018-05-11T16:36:06.209Z,3.73
2018-05-11T16:38:33.775Z,4.50
2018-05-11T16:41:01.281Z,3.60
2018-05-11T16:43:28.801Z,3.57
2018-05-11T16:45:56.369Z,3.13
2018-05-11T16:48:23.937Z,4.00
2018-05-11T16:50:51.425Z,3.80
2018-05-11T16:53:19.785Z,3.53
2018-05-11T16:55:47.345Z,3.27
2018-05-11T16:58:14.916Z,3.43
2018-05-11T17:00:42.410Z,3.40
2018-05-11T17:03:09.911Z,3.37
2018-05-11T17:05:37.492Z,4.00
2018-05-11T17:08:05.140Z,3.53
2018-05-11T17:10:32.687Z,3.63
2018-05-11T17:13:00.214Z,3.33
2018-05-11T17:15:27.725Z,3.30
2018-05-11T17:17:55.245Z,3.60
2018-05-11T17:20:22.742Z,3.10
2018-05-11T17:22:50.394Z,3.90
2018-05-11T17:25:18.641Z,3.17
2018-05-11T17:27:46.140Z,3.00
2018-05-11T17:30:14.491Z,3.60
2018-05-11T17:32:42.019Z,3.67
2018-05-11T17:35:09.515Z,3.73
2018-05-11T17:37:37.099Z,3.63
2018-05-11T17:40:04.654Z,3.90
2018-05-11T17:42:32.171Z,3.20
2018-05-11T17:44:59.799Z,3.63
2018-05-11T17:47:27.306Z,3.33
2018-05-11T17:49:54.808Z,3.73
2018-05-11T17:52:22.289Z,3.50
2018-05-11T17:54:49.845Z,3.80
2018-05-11T17:57:17.369Z,3.53
2018-05-11T17:59:44.880Z,3.83
2018-05-11T18:02:12.455Z,4.17
2018-05-11T18:04:40.018Z,4.10
2018-05-11T18:07:07.513Z,4.10
2018-05-11T18:09:35.040Z,4.47
2018-05-11T18:12:02.616Z,3.97
2018-05-11T18:14:30.111Z,4.10
2018-05-11T18:16:57.640Z,4.03
2018-05-11T18:19:25.191Z,4.27
2018-05-11T18:21:52.695Z,3.77
2018-05-11T18:24:20.974Z,4.03
2018-05-11T18:26:48.484Z,3.70
2018-05-11T18:29:16.078Z,3.93
2018-05-11T18:31:43.590Z,23.63
2018-05-11T18:34:11.210Z,10.50
2018-05-11T18:36:38.776Z,5.57
2018-05-11T18:39:06.343Z,5.70
2018-05-11T18:41:33.848Z,4.97
2018-05-11T18:44:01.345Z,4.97
2018-05-11T18:46:28.873Z,4.70
2018-05-11T18:48:56.400Z,4.60
2018-05-11T18:51:23.904Z,4.90
2018-05-11T18:53:51.691Z,4.70
2018-05-11T18:56:19.708Z,4.83
2018-05-11T18:58:47.276Z,4.53
2018-05-11T19:01:15.544Z,4.70
2018-05-11T19:03:43.036Z,4.33
2018-05-11T19:06:11.416Z,4.47
2018-05-11T19:08:38.936Z,5.00
2018-05-11T19:11:06.461Z,5.73
2018-05-11T19:13:34.734Z,6.60
2018-05-11T19:16:03.104Z,5.67
2018-05-11T19:18:31.362Z,5.27
2018-05-11T19:20:58.852Z,5.47
2018-05-11T19:23:26.378Z,5.37
2018-05-11T19:25:53.867Z,5.30
2018-05-11T19:28:21.470Z,4.80
2018-05-11T19:30:49.734Z,4.90
2018-05-11T19:33:17.244Z,4.97
2018-05-11T19:35:44.768Z,5.60
2018-05-11T19:38:13.027Z,5.17
2018-05-11T19:40:40.606Z,5.07
2018-05-11T19:43:08.088Z,4.73
2018-05-11T19:45:36.442Z,4.80
2018-05-11T19:48:03.968Z,5.00
2018-05-11T19:50:31.464Z,5.30
2018-05-11T19:52:58.954Z,4.97
2018-05-11T19:55:26.507Z,4.77
2018-05-11T19:57:54.072Z,4.90
2018-05-11T20:00:21.581Z,4.90
2018-05-11T20:02:49.082Z,4.80
2018-05-11T20:05:16.609Z,5.20
2018-05-11T20:07:44.130Z,4.97
2018-05-11T20:10:11.656Z,4.63
2018-05-11T20:12:39.268Z,4.50
2018-05-11T20:15:06.763Z,4.40
2018-05-11T20:17:35.140Z,4.70
2018-05-11T20:20:03.395Z,4.93
2018-05-11T20:22:30.969Z,5.00
2018-05-11T20:24:58.552Z,4.70
2018-05-11T20:27:26.046Z,5.23
2018-05-11T20:29:53.566Z,4.83
2018-05-11T20:32:21.920Z,4.80
2018-05-11T20:34:49.333Z,4.77
2018-05-11T20:37:17.613Z,5.10
2018-05-11T20:39:45.970Z,5.03
2018-05-11T20:42:13.479Z,4.97
2018-05-11T20:44:40.992Z,4.80
2018-05-11T20:47:08.516Z,5.60
2018-05-11T20:49:36.031Z,4.90
2018-05-11T20:52:03.551Z,4.83
2018-05-11T20:54:31.051Z,4.73
2018-05-11T20:56:58.612Z,4.97
2018-05-11T20:59:26.129Z,5.33
2018-05-11T21:01:53.763Z,5.10
2018-05-11T21:04:21.261Z,4.80
2018-05-11T21:06:48.799Z,5.20
2018-05-11T21:09:17.069Z,5.50
2018-05-11T21:11:44.601Z,5.03
2018-05-11T21:14:12.117Z,5.60
2018-05-11T21:16:40.373Z,5.30
2018-05-11T21:19:07.916Z,5.43
2018-05-11T21:21:35.397Z,5.80
2018-05-11T21:24:02.899Z,5.50
2018-05-11T21:26:31.257Z,5.10
2018-05-11T21:28:58.756Z,4.80
2018-05-11T21:31:26.258Z,5.43
2018-05-11T21:33:53.840Z,5.17
2018-05-11T21:36:21.334Z,5.47
2018-05-11T21:38:49.611Z,5.50
2018-05-11T21:41:17.105Z,5.30
2018-05-11T21:43:44.647Z,5.80
2018-05-11T21:46:12.931Z,5.07
2018-05-11T21:48:40.471Z,5.70
2018-05-11T21:51:08.015Z,5.10
2018-05-11T21:53:35.507Z,5.60
2018-05-11T21:56:03.057Z,6.10
2018-05-11T21:58:30.587Z,5.53
2018-05-11T22:00:58.094Z,5.60
2018-05-11T22:03:25.606Z,5.57
2018-05-11T22:05:53.174Z,5.27
2018-05-11T22:08:20.595Z,5.70
2018-05-11T22:10:48.149Z,5.10
2018-05-11T22:13:15.663Z,5.40
2018-05-11T22:15:43.182Z,5.50
2018-05-11T22:18:10.743Z,5.50
2018-05-11T22:20:38.304Z,5.70
2018-05-11T22:23:05.875Z,5.37
2018-05-11T22:25:33.376Z,5.63
2018-05-11T22:28:01.739Z,5.43
2018-05-11T22:30:29.284Z,5.03
2018-05-11T22:32:56.874Z,5.03
2018-05-11T22:35:25.135Z,5.40
2018-05-11T22:37:52.613Z,5.60
2018-05-11T22:40:20.131Z,5.40
2018-05-11T22:42:47.630Z,5.47
2018-05-11T22:45:15.140Z,5.70
2018-05-11T22:47:42.667Z,5.30
2018-05-11T22:50:10.175Z,5.50
2018-05-11T22:52:37.681Z,5.60
2018-05-11T22:55:05.199Z,5.77
2018-05-11T22:57:32.688Z,5.37
2018-05-11T23:00:00.176Z,6.00
2018-05-11T23:02:27.671Z,6.00
2018-05-11T23:04:55.950Z,5.80
2018-05-11T23:07:24.210Z,5.37
2018-05-11T23:09:51.699Z,5.50
2018-05-11T23:12:19.961Z,5.27
2018-05-11T23:14:47.464Z,5.33
2018-05-11T23:17:15.087Z,5.60
2018-05-11T23:19:42.587Z,5.50
2018-05-11T23:22:10.842Z,5.47
2018-05-11T23:24:39.106Z,5.77
2018-05-11T23:27:06.681Z,5.57
2018-05-11T23:29:34.193Z,5.50
2018-05-11T23:32:01.686Z,5.60
2018-05-11T23:34:29.180Z,5.60
2018-05-11T23:36:56.671Z,5.40
2018-05-11T23:39:25.031Z,5.37
2018-05-11T23:41:52.593Z,5.87
2018-05-11T23:44:20.103Z,5.50
2018-05-11T23:46:47.596Z,5.93
2018-05-11T23:49:15.180Z,5.37
2018-05-11T23:51:42.754Z,5.50
2018-05-11T23:54:10.317Z,5.47
2018-05-11T23:56:37.842Z,5.40
2018-05-11T23:59:05.327Z,5.73
